sensor_id;sensor_type;location;lat;lon;timestamp;temperature;humidity
11573;DHT22;5842;52.426;4.886;2022-12-11T07:38:38;1.10;99.90
11573;DHT22;5842;52.426;4.886;2022-12-11T07:41:07;0.90;99.90
11573;DHT22;5842;52.426;4.886;2022-12-11T07:43:35;1.00;99.90
11573;DHT22;5842;52.426;4.886;2022-12-11T07:46:04;1.00;99.90
11573;DHT22;5842;52.426;4.886;2022-12-11T07:48:34;1.00;99.90
11573;DHT22;5842;52.426;4.886;2022-12-11T07:51:09;1.00;99.90
11573;DHT22;5842;52.426;4.886;2022-12-11T07:53:38;1.00;99.90
11573;DHT22;5842;52.426;4.886;2022-12-11T07:56:06;1.00;99.90
11573;DHT22;5842;52.426;4.886;2022-12-11T07:58:36;0.90;99.90
11573;DHT22;5842;52.426;4.886;2022-12-11T08:01:04;0.90;99.90
11573;DHT22;5842;52.426;4.886;2022-12-11T08:03:31;0.80;99.90
11573;DHT22;5842;52.426;4.886;2022-12-11T08:05:59;0.80;99.90
11573;DHT22;5842;52.426;4.886;2022-12-11T08:08:26;0.90;99.90
11573;DHT22;5842;52.426;4.886;2022-12-11T08:10:54;0.90;99.90
11573;DHT22;5842;52.426;4.886;2022-12-11T08:13:22;0.90;99.90
11573;DHT22;5842;52.426;4.886;2022-12-11T08:15:50;0.80;99.90
11573;DHT22;5842;52.426;4.886;2022-12-11T08:18:18;0.80;99.90
11573;DHT22;5842;52.426;4.886;2022-12-11T08:20:45;0.80;99.90
11573;DHT22;5842;52.426;4.886;2022-12-11T08:23:13;0.80;99.90
11573;DHT22;5842;52.426;4.886;2022-12-11T08:25:40;0.70;99.90
11573;DHT22;5842;52.426;4.886;2022-12-11T08:28:09;0.70;99.90
11573;DHT22;5842;52.426;4.886;2022-12-11T08:30:37;0.70;99.90
11573;DHT22;5842;52.426;4.886;2022-12-11T08:33:05;0.80;99.90
11573;DHT22;5842;52.426;4.886;2022-12-11T08:35:33;0.80;99.90
11573;DHT22;5842;52.426;4.886;2022-12-11T08:38:04;0.90;99.90
11573;DHT22;5842;52.426;4.886;2022-12-11T08:40:32;1.00;99.90
11573;DHT22;5842;52.426;4.886;2022-12-11T08:42:59;1.10;99.90
11573;DHT22;5842;52.426;4.886;2022-12-11T08:45:29;1.20;99.90
11573;DHT22;5842;52.426;4.886;2022-12-11T08:47:57;1.30;99.90
11573;DHT22;5842;52.426;4.886;2022-12-11T08:50:25;1.50;99.90
11573;DHT22;5842;52.426;4.886;2022-12-11T08:52:52;1.60;99.90
11573;DHT22;5842;52.426;4.886;2022-12-11T08:55:19;1.80;99.90
11573;DHT22;5842;52.426;4.886;2022-12-11T08:57:47;1.80;99.90
11573;DHT22;5842;52.426;4.886;2022-12-11T09:00:16;1.90;99.90
11573;DHT22;5842;52.426;4.886;2022-12-11T09:02:46;1.90;99.90
11573;DHT22;5842;52.426;4.886;2022-12-11T09:05:13;1.90;99.90
11573;DHT22;5842;52.426;4.886;2022-12-11T09:07:40;2.00;99.90
11573;DHT22;5842;52.426;4.886;2022-12-11T09:10:08;2.00;99.90
11573;DHT22;5842;52.426;4.886;2022-12-11T09:12:36;2.00;99.90
11573;DHT22;5842;52.426;4.886;2022-12-11T09:15:04;2.10;99.90
11573;DHT22;5842;52.426;4.886;2022-12-11T09:17:33;2.10;99.90
11573;DHT22;5842;52.426;4.886;2022-12-11T09:20:02;2.20;99.90
11573;DHT22;5842;52.426;4.886;2022-12-11T09:22:31;2.20;99.90
11573;DHT22;5842;52.426;4.886;2022-12-11T09:24:58;2.20;99.90
11573;DHT22;5842;52.426;4.886;2022-12-11T09:27:25;2.30;99.90
11573;DHT22;5842;52.426;4.886;2022-12-11T09:29:53;2.30;99.90
11573;DHT22;5842;52.426;4.886;2022-12-11T09:32:21;2.40;99.90
11573;DHT22;5842;52.426;4.886;2022-12-11T09:34:49;2.40;99.90
11573;DHT22;5842;52.426;4.886;2022-12-11T09:37:18;2.50;99.90
11573;DHT22;5842;52.426;4.886;2022-12-11T09:39:45;2.50;99.90
11573;DHT22;5842;52.426;4.886;2022-12-11T09:42:16;2.50;99.90
11573;DHT22;5842;52.426;4.886;2022-12-11T09:44:46;2.40;99.90
11573;DHT22;5842;52.426;4.886;2022-12-11T09:47:19;2.30;99.90
11573;DHT22;5842;52.426;4.886;2022-12-11T09:49:50;2.20;99.90
11573;DHT22;5842;52.426;4.886;2022-12-11T09:52:23;2.20;99.90
11573;DHT22;5842;52.426;4.886;2022-12-11T09:54:59;2.20;99.90
11573;DHT22;5842;52.426;4.886;2022-12-11T09:57:38;2.10;99.90
11573;DHT22;5842;52.426;4.886;2022-12-11T10:00:15;2.20;99.90
11573;DHT22;5842;52.426;4.886;2022-12-11T10:02:58;2.20;99.90
11573;DHT22;5842;52.426;4.886;2022-12-11T10:05:33;2.20;99.90
11573;DHT22;5842;52.426;4.886;2022-12-11T10:08:10;2.10;99.90
11573;DHT22;5842;52.426;4.886;2022-12-11T10:10:42;2.10;99.90
11573;DHT22;5842;52.426;4.886;2022-12-11T10:13:20;2.10;99.90
11573;DHT22;5842;52.426;4.886;2022-12-11T10:15:55;2.20;99.90
11573;DHT22;5842;52.426;4.886;2022-12-11T10:18:25;2.30;99.90
11573;DHT22;5842;52.426;4.886;2022-12-11T10:20:54;2.40;99.90
11573;DHT22;5842;52.426;4.886;2022-12-11T10:23:27;2.50;99.90
11573;DHT22;5842;52.426;4.886;2022-12-11T10:26:03;2.60;99.90
11573;DHT22;5842;52.426;4.886;2022-12-11T10:28:32;2.60;99.90
11573;DHT22;5842;52.426;4.886;2022-12-11T10:31:08;2.70;99.90
11573;DHT22;5842;52.426;4.886;2022-12-11T10:33:43;2.80;99.90
11573;DHT22;5842;52.426;4.886;2022-12-11T10:36:15;2.70;99.90
11573;DHT22;5842;52.426;4.886;2022-12-11T10:38:46;2.80;99.90
11573;DHT22;5842;52.426;4.886;2022-12-11T10:41:17;2.80;99.90
11573;DHT22;5842;52.426;4.886;2022-12-11T10:43:51;2.80;99.90
11573;DHT22;5842;52.426;4.886;2022-12-11T10:46:20;2.90;99.90
11573;DHT22;5842;52.426;4.886;2022-12-11T10:48:50;2.90;99.90
11573;DHT22;5842;52.426;4.886;2022-12-11T10:51:21;2.90;99.90
11573;DHT22;5842;52.426;4.886;2022-12-11T10:53:51;3.00;99.90
11573;DHT22;5842;52.426;4.886;2022-12-11T10:56:25;3.00;99.90
11573;DHT22;5842;52.426;4.886;2022-12-11T10:58:55;3.00;99.90
11573;DHT22;5842;52.426;4.886;2022-12-11T11:01:24;3.10;99.90
11573;DHT22;5842;52.426;4.886;2022-12-11T11:03:55;3.10;99.90
11573;DHT22;5842;52.426;4.886;2022-12-11T11:06:24;3.10;99.90
11573;DHT22;5842;52.426;4.886;2022-12-11T11:08:55;3.10;99.90
11573;DHT22;5842;52.426;4.886;2022-12-11T11:11:26;3.20;99.90
11573;DHT22;5842;52.426;4.886;2022-12-11T11:14:13;3.20;99.90
11573;DHT22;5842;52.426;4.886;2022-12-11T11:16:43;3.20;99.90
11573;DHT22;5842;52.426;4.886;2022-12-11T11:19:18;3.20;99.90
11573;DHT22;5842;52.426;4.886;2022-12-11T11:21:50;3.20;99.90
11573;DHT22;5842;52.426;4.886;2022-12-11T11:24:27;3.20;99.90
11573;DHT22;5842;52.426;4.886;2022-12-11T11:26:55;3.30;99.90
11573;DHT22;5842;52.426;4.886;2022-12-11T11:29:26;3.20;99.90
11573;DHT22;5842;52.426;4.886;2022-12-11T11:31:55;3.20;99.90
11573;DHT22;5842;52.426;4.886;2022-12-11T11:34:22;3.20;99.90
11573;DHT22;5842;52.426;4.886;2022-12-11T11:36:59;3.20;99.90
11573;DHT22;5842;52.426;4.886;2022-12-11T11:39:36;3.20;99.90
11573;DHT22;5842;52.426;4.886;2022-12-11T11:42:12;3.20;99.90
11573;DHT22;5842;52.426;4.886;2022-12-11T11:44:44;3.20;99.90
11573;DHT22;5842;52.426;4.886;2022-12-11T11:47:20;3.20;99.90
11573;DHT22;5842;52.426;4.886;2022-12-11T11:49:56;3.10;99.90
11573;DHT22;5842;52.426;4.886;2022-12-11T11:52:31;3.10;99.90
11573;DHT22;5842;52.426;4.886;2022-12-11T11:55:07;3.00;99.90
11573;DHT22;5842;52.426;4.886;2022-12-11T11:57:39;3.00;99.90
11573;DHT22;5842;52.426;4.886;2022-12-11T12:00:17;2.90;99.90
11573;DHT22;5842;52.426;4.886;2022-12-11T12:02:45;2.90;99.90
11573;DHT22;5842;52.426;4.886;2022-12-11T12:05:22;2.90;99.90
11573;DHT22;5842;52.426;4.886;2022-12-11T12:08:04;2.90;99.90
11573;DHT22;5842;52.426;4.886;2022-12-11T12:10:43;2.90;99.90
11573;DHT22;5842;52.426;4.886;2022-12-11T12:13:18;2.90;99.90
11573;DHT22;5842;52.426;4.886;2022-12-11T12:15:54;2.90;99.90
11573;DHT22;5842;52.426;4.886;2022-12-11T12:18:31;2.80;99.90
11573;DHT22;5842;52.426;4.886;2022-12-11T12:21:13;2.90;99.90
11573;DHT22;5842;52.426;4.886;2022-12-11T12:24:01;2.90;99.90
11573;DHT22;5842;52.426;4.886;2022-12-11T12:26:35;2.90;99.90
11573;DHT22;5842;52.426;4.886;2022-12-11T12:29:13;2.90;99.90
11573;DHT22;5842;52.426;4.886;2022-12-11T12:31:56;2.90;99.90
11573;DHT22;5842;52.426;4.886;2022-12-11T12:34:37;2.90;99.90
11573;DHT22;5842;52.426;4.886;2022-12-11T12:37:14;2.90;99.90
11573;DHT22;5842;52.426;4.886;2022-12-11T12:39:48;2.90;99.90
11573;DHT22;5842;52.426;4.886;2022-12-11T12:42:25;2.90;99.90
11573;DHT22;5842;52.426;4.886;2022-12-11T12:45:02;3.00;99.90
11573;DHT22;5842;52.426;4.886;2022-12-11T12:47:35;3.00;99.90
11573;DHT22;5842;52.426;4.886;2022-12-11T12:50:05;3.00;99.90
11573;DHT22;5842;52.426;4.886;2022-12-11T12:52:38;3.00;99.90
11573;DHT22;5842;52.426;4.886;2022-12-11T12:55:18;3.00;99.90
11573;DHT22;5842;52.426;4.886;2022-12-11T12:57:53;3.00;99.90
11573;DHT22;5842;52.426;4.886;2022-12-11T13:00:27;3.00;99.90
11573;DHT22;5842;52.426;4.886;2022-12-11T13:02:55;3.00;99.90
11573;DHT22;5842;52.426;4.886;2022-12-11T13:05:25;3.00;99.90
11573;DHT22;5842;52.426;4.886;2022-12-11T13:07:56;3.00;99.90
11573;DHT22;5842;52.426;4.886;2022-12-11T13:10:29;3.00;99.90
11573;DHT22;5842;52.426;4.886;2022-12-11T13:13:00;3.00;99.90
11573;DHT22;5842;52.426;4.886;2022-12-11T13:15:34;3.00;99.90
11573;DHT22;5842;52.426;4.886;2022-12-11T13:18:05;3.10;99.90
11573;DHT22;5842;52.426;4.886;2022-12-11T13:20:34;3.10;99.90
11573;DHT22;5842;52.426;4.886;2022-12-11T13:23:17;3.10;99.90
11573;DHT22;5842;52.426;4.886;2022-12-11T13:25:51;3.10;99.90
11573;DHT22;5842;52.426;4.886;2022-12-11T13:28:23;3.10;99.90
11573;DHT22;5842;52.426;4.886;2022-12-11T13:31:04;3.00;99.90
11573;DHT22;5842;52.426;4.886;2022-12-11T13:33:38;3.10;99.90
11573;DHT22;5842;52.426;4.886;2022-12-11T13:36:31;3.00;99.90
11573;DHT22;5842;52.426;4.886;2022-12-11T13:39:03;2.90;99.90
11573;DHT22;5842;52.426;4.886;2022-12-11T13:41:34;2.90;99.90
11573;DHT22;5842;52.426;4.886;2022-12-11T13:44:05;2.90;99.90
11573;DHT22;5842;52.426;4.886;2022-12-11T13:46:35;2.90;99.90
11573;DHT22;5842;52.426;4.886;2022-12-11T13:49:05;2.90;99.90
11573;DHT22;5842;52.426;4.886;2022-12-11T13:51:35;2.90;99.90
11573;DHT22;5842;52.426;4.886;2022-12-11T13:54:12;2.80;99.90
11573;DHT22;5842;52.426;4.886;2022-12-11T13:56:51;2.80;99.90
11573;DHT22;5842;52.426;4.886;2022-12-11T13:59:27;2.80;99.90
11573;DHT22;5842;52.426;4.886;2022-12-11T14:01:57;2.80;99.90
11573;DHT22;5842;52.426;4.886;2022-12-11T14:04:26;2.90;99.90
11573;DHT22;5842;52.426;4.886;2022-12-11T14:06:55;2.90;99.90
11573;DHT22;5842;52.426;4.886;2022-12-11T14:09:24;2.80;99.90
11573;DHT22;5842;52.426;4.886;2022-12-11T14:11:53;2.80;99.90
11573;DHT22;5842;52.426;4.886;2022-12-11T14:14:28;2.80;99.90
11573;DHT22;5842;52.426;4.886;2022-12-11T14:16:59;2.70;99.90
11573;DHT22;5842;52.426;4.886;2022-12-11T14:19:26;2.70;99.90
11573;DHT22;5842;52.426;4.886;2022-12-11T14:21:56;2.70;99.90
11573;DHT22;5842;52.426;4.886;2022-12-11T14:24:24;2.70;99.90
11573;DHT22;5842;52.426;4.886;2022-12-11T14:26:53;2.60;99.90
11573;DHT22;5842;52.426;4.886;2022-12-11T14:29:30;2.60;99.90
11573;DHT22;5842;52.426;4.886;2022-12-11T14:32:00;2.60;99.90
11573;DHT22;5842;52.426;4.886;2022-12-11T14:34:31;2.60;99.90
11573;DHT22;5842;52.426;4.886;2022-12-11T14:37:01;2.50;99.90
11573;DHT22;5842;52.426;4.886;2022-12-11T14:39:31;2.50;99.90
11573;DHT22;5842;52.426;4.886;2022-12-11T14:42:03;2.50;99.90
11573;DHT22;5842;52.426;4.886;2022-12-11T14:44:43;2.50;99.90
11573;DHT22;5842;52.426;4.886;2022-12-11T14:47:15;2.40;99.90
11573;DHT22;5842;52.426;4.886;2022-12-11T14:49:48;2.40;99.90
11573;DHT22;5842;52.426;4.886;2022-12-11T14:52:18;2.40;99.90
11573;DHT22;5842;52.426;4.886;2022-12-11T14:54:50;2.40;99.90
11573;DHT22;5842;52.426;4.886;2022-12-11T14:57:21;2.30;99.90
11573;DHT22;5842;52.426;4.886;2022-12-11T14:59:52;2.30;99.90
11573;DHT22;5842;52.426;4.886;2022-12-11T15:02:24;2.30;99.90
11573;DHT22;5842;52.426;4.886;2022-12-11T15:05:21;2.20;99.90
11573;DHT22;5842;52.426;4.886;2022-12-11T15:08:00;2.10;99.90
11573;DHT22;5842;52.426;4.886;2022-12-11T15:10:32;2.10;99.90
11573;DHT22;5842;52.426;4.886;2022-12-11T15:13:02;2.10;99.90
11573;DHT22;5842;52.426;4.886;2022-12-11T15:15:36;2.10;99.90
11573;DHT22;5842;52.426;4.886;2022-12-11T15:18:06;2.00;99.90
11573;DHT22;5842;52.426;4.886;2022-12-11T15:20:39;1.90;99.90
11573;DHT22;5842;52.426;4.886;2022-12-11T15:23:06;1.80;99.90
11573;DHT22;5842;52.426;4.886;2022-12-11T15:25:34;1.70;99.90
11573;DHT22;5842;52.426;4.886;2022-12-11T15:28:02;1.70;99.90
11573;DHT22;5842;52.426;4.886;2022-12-11T15:30:33;1.60;99.90
11573;DHT22;5842;52.426;4.886;2022-12-11T15:33:17;1.50;99.90
11573;DHT22;5842;52.426;4.886;2022-12-11T15:35:54;1.40;99.90
11573;DHT22;5842;52.426;4.886;2022-12-11T15:38:27;1.30;99.90
11573;DHT22;5842;52.426;4.886;2022-12-11T15:40:55;1.30;99.90
11573;DHT22;5842;52.426;4.886;2022-12-11T15:43:23;1.30;99.90
11573;DHT22;5842;52.426;4.886;2022-12-11T15:45:52;1.20;99.90
11573;DHT22;5842;52.426;4.886;2022-12-11T15:48:19;1.30;99.90
11573;DHT22;5842;52.426;4.886;2022-12-11T15:50:46;1.40;99.90
11573;DHT22;5842;52.426;4.886;2022-12-11T15:53:13;1.50;99.90
11573;DHT22;5842;52.426;4.886;2022-12-11T15:55:41;1.50;99.90
11573;DHT22;5842;52.426;4.886;2022-12-11T15:58:13;1.40;99.90
11573;DHT22;5842;52.426;4.886;2022-12-11T16:00:41;1.40;99.90
11573;DHT22;5842;52.426;4.886;2022-12-11T16:03:12;1.40;99.90
11573;DHT22;5842;52.426;4.886;2022-12-11T16:05:40;1.40;99.90
11573;DHT22;5842;52.426;4.886;2022-12-11T16:08:11;1.30;99.90
11573;DHT22;5842;52.426;4.886;2022-12-11T16:10:40;1.30;99.90
11573;DHT22;5842;52.426;4.886;2022-12-11T16:13:08;1.20;99.90
11573;DHT22;5842;52.426;4.886;2022-12-11T16:15:36;1.10;99.90
11573;DHT22;5842;52.426;4.886;2022-12-11T16:18:05;1.00;99.90
11573;DHT22;5842;52.426;4.886;2022-12-11T16:20:35;0.90;99.90
11573;DHT22;5842;52.426;4.886;2022-12-11T16:23:04;0.80;99.90
11573;DHT22;5842;52.426;4.886;2022-12-11T16:25:31;0.70;99.90
11573;DHT22;5842;52.426;4.886;2022-12-11T16:28:00;0.60;99.90
11573;DHT22;5842;52.426;4.886;2022-12-11T16:30:28;0.50;99.90
11573;DHT22;5842;52.426;4.886;2022-12-11T16:32:56;0.40;99.90
11573;DHT22;5842;52.426;4.886;2022-12-11T16:35:23;0.30;99.90
11573;DHT22;5842;52.426;4.886;2022-12-11T16:37:52;0.50;99.90
11573;DHT22;5842;52.426;4.886;2022-12-11T16:40:20;0.50;99.90
11573;DHT22;5842;52.426;4.886;2022-12-11T16:42:48;0.40;99.90
11573;DHT22;5842;52.426;4.886;2022-12-11T16:45:17;0.30;99.90
11573;DHT22;5842;52.426;4.886;2022-12-11T16:47:44;0.30;99.90
11573;DHT22;5842;52.426;4.886;2022-12-11T16:50:13;0.30;99.90
11573;DHT22;5842;52.426;4.886;2022-12-11T16:52:42;0.30;99.90
11573;DHT22;5842;52.426;4.886;2022-12-11T16:55:11;0.40;99.90
11573;DHT22;5842;52.426;4.886;2022-12-11T16:57:39;0.50;99.90
11573;DHT22;5842;52.426;4.886;2022-12-11T17:00:09;0.50;99.90
11573;DHT22;5842;52.426;4.886;2022-12-11T17:02:38;0.60;99.90
11573;DHT22;5842;52.426;4.886;2022-12-11T17:05:05;0.70;99.90
11573;DHT22;5842;52.426;4.886;2022-12-11T17:07:33;0.80;99.90
11573;DHT22;5842;52.426;4.886;2022-12-11T17:10:00;0.90;99.90
11573;DHT22;5842;52.426;4.886;2022-12-11T17:12:29;0.90;99.90
11573;DHT22;5842;52.426;4.886;2022-12-11T17:15:00;1.00;99.90
11573;DHT22;5842;52.426;4.886;2022-12-11T17:17:27;1.10;99.90
11573;DHT22;5842;52.426;4.886;2022-12-11T17:19:54;1.10;99.90
11573;DHT22;5842;52.426;4.886;2022-12-11T17:22:21;1.10;99.90
11573;DHT22;5842;52.426;4.886;2022-12-11T17:24:49;1.10;99.90
11573;DHT22;5842;52.426;4.886;2022-12-11T17:27:17;1.20;99.90
11573;DHT22;5842;52.426;4.886;2022-12-11T17:29:46;1.20;99.90
11573;DHT22;5842;52.426;4.886;2022-12-11T17:32:14;1.20;99.90
11573;DHT22;5842;52.426;4.886;2022-12-11T17:34:43;1.20;99.90
11573;DHT22;5842;52.426;4.886;2022-12-11T17:37:12;1.20;99.90
11573;DHT22;5842;52.426;4.886;2022-12-11T17:39:39;1.20;99.90
11573;DHT22;5842;52.426;4.886;2022-12-11T17:42:07;1.20;99.90
11573;DHT22;5842;52.426;4.886;2022-12-11T17:44:35;1.20;99.90
11573;DHT22;5842;52.426;4.886;2022-12-11T17:47:05;1.20;99.90
11573;DHT22;5842;52.426;4.886;2022-12-11T17:49:32;1.20;99.90
11573;DHT22;5842;52.426;4.886;2022-12-11T17:51:59;1.30;99.90
11573;DHT22;5842;52.426;4.886;2022-12-11T17:54:26;1.30;99.90
11573;DHT22;5842;52.426;4.886;2022-12-11T17:56:53;1.30;99.90
11573;DHT22;5842;52.426;4.886;2022-12-11T17:59:21;1.30;99.90
11573;DHT22;5842;52.426;4.886;2022-12-11T18:01:48;1.30;99.90
11573;DHT22;5842;52.426;4.886;2022-12-11T18:04:17;1.30;99.90
11573;DHT22;5842;52.426;4.886;2022-12-11T18:06:44;1.30;99.90
11573;DHT22;5842;52.426;4.886;2022-12-11T18:09:11;1.30;99.90
11573;DHT22;5842;52.426;4.886;2022-12-11T18:11:38;1.20;99.90
11573;DHT22;5842;52.426;4.886;2022-12-11T18:14:06;1.20;99.90
11573;DHT22;5842;52.426;4.886;2022-12-11T18:16:35;1.20;99.90
11573;DHT22;5842;52.426;4.886;2022-12-11T18:19:03;1.20;99.90
11573;DHT22;5842;52.426;4.886;2022-12-11T18:21:33;1.30;99.90
11573;DHT22;5842;52.426;4.886;2022-12-11T18:24:01;1.30;99.90
11573;DHT22;5842;52.426;4.886;2022-12-11T18:26:28;1.30;99.90
11573;DHT22;5842;52.426;4.886;2022-12-11T18:28:56;1.30;99.90
11573;DHT22;5842;52.426;4.886;2022-12-11T18:31:23;1.30;99.90
11573;DHT22;5842;52.426;4.886;2022-12-11T18:33:51;1.30;99.90
11573;DHT22;5842;52.426;4.886;2022-12-11T18:36:18;1.30;99.90
11573;DHT22;5842;52.426;4.886;2022-12-11T18:38:48;1.30;99.90
11573;DHT22;5842;52.426;4.886;2022-12-11T18:41:17;1.20;99.90
11573;DHT22;5842;52.426;4.886;2022-12-11T18:43:44;1.20;99.90
11573;DHT22;5842;52.426;4.886;2022-12-11T18:46:13;1.20;99.90
11573;DHT22;5842;52.426;4.886;2022-12-11T18:48:41;1.20;99.90
11573;DHT22;5842;52.426;4.886;2022-12-11T18:51:10;1.20;99.90
11573;DHT22;5842;52.426;4.886;2022-12-11T18:53:38;1.10;99.90
11573;DHT22;5842;52.426;4.886;2022-12-11T18:56:09;1.10;99.90
11573;DHT22;5842;52.426;4.886;2022-12-11T18:58:37;1.10;99.90
11573;DHT22;5842;52.426;4.886;2022-12-11T19:01:05;1.10;99.90
11573;DHT22;5842;52.426;4.886;2022-12-11T19:03:33;1.00;99.90
11573;DHT22;5842;52.426;4.886;2022-12-11T19:06:06;1.00;99.90
11573;DHT22;5842;52.426;4.886;2022-12-11T19:08:33;1.00;99.90
11573;DHT22;5842;52.426;4.886;2022-12-11T19:11:00;1.00;99.90
11573;DHT22;5842;52.426;4.886;2022-12-11T19:13:29;1.00;99.90
11573;DHT22;5842;52.426;4.886;2022-12-11T19:15:56;1.00;99.90
11573;DHT22;5842;52.426;4.886;2022-12-11T19:18:24;1.00;99.90
11573;DHT22;5842;52.426;4.886;2022-12-11T19:20:52;1.10;99.90
11573;DHT22;5842;52.426;4.886;2022-12-11T19:23:22;1.10;99.90
11573;DHT22;5842;52.426;4.886;2022-12-11T19:25:49;1.10;99.90
11573;DHT22;5842;52.426;4.886;2022-12-11T19:28:17;1.10;99.90
11573;DHT22;5842;52.426;4.886;2022-12-11T19:30:47;1.10;99.90
11573;DHT22;5842;52.426;4.886;2022-12-11T19:33:15;1.10;99.90
11573;DHT22;5842;52.426;4.886;2022-12-11T19:35:43;1.00;99.90
11573;DHT22;5842;52.426;4.886;2022-12-11T19:38:10;1.00;99.90
11573;DHT22;5842;52.426;4.886;2022-12-11T19:40:40;1.00;99.90
11573;DHT22;5842;52.426;4.886;2022-12-11T19:43:07;1.00;99.90
11573;DHT22;5842;52.426;4.886;2022-12-11T19:45:35;1.00;99.90
11573;DHT22;5842;52.426;4.886;2022-12-11T19:48:05;1.00;99.90
11573;DHT22;5842;52.426;4.886;2022-12-11T19:50:34;1.00;99.90
11573;DHT22;5842;52.426;4.886;2022-12-11T19:53:02;1.00;99.90
11573;DHT22;5842;52.426;4.886;2022-12-11T19:55:31;1.00;99.90
11573;DHT22;5842;52.426;4.886;2022-12-11T19:57:58;1.00;99.90
11573;DHT22;5842;52.426;4.886;2022-12-11T20:00:25;1.00;99.90
11573;DHT22;5842;52.426;4.886;2022-12-11T20:02:53;1.00;99.90
11573;DHT22;5842;52.426;4.886;2022-12-11T20:05:22;1.00;99.90
11573;DHT22;5842;52.426;4.886;2022-12-11T20:07:51;1.00;99.90
11573;DHT22;5842;52.426;4.886;2022-12-11T20:10:18;1.10;99.90
11573;DHT22;5842;52.426;4.886;2022-12-11T20:12:45;1.10;99.90
11573;DHT22;5842;52.426;4.886;2022-12-11T20:15:13;1.00;99.90
11573;DHT22;5842;52.426;4.886;2022-12-11T20:17:42;1.00;99.90
11573;DHT22;5842;52.426;4.886;2022-12-11T20:20:10;1.10;99.90
11573;DHT22;5842;52.426;4.886;2022-12-11T20:22:40;1.10;99.90
11573;DHT22;5842;52.426;4.886;2022-12-11T20:25:07;1.10;99.90
11573;DHT22;5842;52.426;4.886;2022-12-11T20:27:36;1.00;99.90
11573;DHT22;5842;52.426;4.886;2022-12-11T20:30:07;1.00;99.90
11573;DHT22;5842;52.426;4.886;2022-12-11T20:32:34;1.00;99.90
11573;DHT22;5842;52.426;4.886;2022-12-11T20:35:02;1.00;99.90
11573;DHT22;5842;52.426;4.886;2022-12-11T20:37:30;1.00;99.90
11573;DHT22;5842;52.426;4.886;2022-12-11T20:39:59;1.10;99.90
11573;DHT22;5842;52.426;4.886;2022-12-11T20:42:26;1.00;99.90
11573;DHT22;5842;52.426;4.886;2022-12-11T20:44:54;1.00;99.90
11573;DHT22;5842;52.426;4.886;2022-12-11T20:47:21;0.90;99.90
11573;DHT22;5842;52.426;4.886;2022-12-11T20:49:49;0.90;99.90
11573;DHT22;5842;52.426;4.886;2022-12-11T20:52:18;0.80;99.90
11573;DHT22;5842;52.426;4.886;2022-12-11T20:54:45;0.80;99.90
11573;DHT22;5842;52.426;4.886;2022-12-11T20:57:14;0.80;99.90
11573;DHT22;5842;52.426;4.886;2022-12-11T20:59:41;0.80;99.90
11573;DHT22;5842;52.426;4.886;2022-12-11T21:02:10;0.80;99.90
11573;DHT22;5842;52.426;4.886;2022-12-11T21:04:38;0.90;99.90
11573;DHT22;5842;52.426;4.886;2022-12-11T21:07:06;0.90;99.90
11573;DHT22;5842;52.426;4.886;2022-12-11T21:09:34;0.90;99.90
11573;DHT22;5842;52.426;4.886;2022-12-11T21:12:01;1.00;99.90
11573;DHT22;5842;52.426;4.886;2022-12-11T21:14:30;1.00;99.90
11573;DHT22;5842;52.426;4.886;2022-12-11T21:16:58;1.00;99.90
11573;DHT22;5842;52.426;4.886;2022-12-11T21:19:26;1.00;99.90
11573;DHT22;5842;52.426;4.886;2022-12-11T21:21:53;1.00;99.90
11573;DHT22;5842;52.426;4.886;2022-12-11T21:24:22;0.90;99.90
11573;DHT22;5842;52.426;4.886;2022-12-11T21:26:52;0.90;99.90
11573;DHT22;5842;52.426;4.886;2022-12-11T21:29:21;1.00;99.90
11573;DHT22;5842;52.426;4.886;2022-12-11T21:31:51;1.00;99.90
11573;DHT22;5842;52.426;4.886;2022-12-11T21:34:22;1.00;99.90
11573;DHT22;5842;52.426;4.886;2022-12-11T21:36:50;1.00;99.90
11573;DHT22;5842;52.426;4.886;2022-12-11T21:39:21;0.90;99.90
11573;DHT22;5842;52.426;4.886;2022-12-11T21:41:52;0.90;99.90
11573;DHT22;5842;52.426;4.886;2022-12-11T21:44:20;0.90;99.90
11573;DHT22;5842;52.426;4.886;2022-12-11T21:46:48;0.90;99.90
11573;DHT22;5842;52.426;4.886;2022-12-11T21:49:17;0.90;99.90
11573;DHT22;5842;52.426;4.886;2022-12-11T21:51:45;0.90;99.90
11573;DHT22;5842;52.426;4.886;2022-12-11T21:54:16;0.80;99.90
11573;DHT22;5842;52.426;4.886;2022-12-11T21:56:44;0.90;99.90
11573;DHT22;5842;52.426;4.886;2022-12-11T21:59:12;0.90;99.90
11573;DHT22;5842;52.426;4.886;2022-12-11T22:01:41;0.90;99.90
11573;DHT22;5842;52.426;4.886;2022-12-11T22:04:11;0.90;99.90
11573;DHT22;5842;52.426;4.886;2022-12-11T22:06:41;0.90;99.90
11573;DHT22;5842;52.426;4.886;2022-12-11T22:09:12;0.90;99.90
11573;DHT22;5842;52.426;4.886;2022-12-11T22:11:41;0.90;99.90
11573;DHT22;5842;52.426;4.886;2022-12-11T22:14:11;0.90;99.90
11573;DHT22;5842;52.426;4.886;2022-12-11T22:16:38;0.90;99.90
11573;DHT22;5842;52.426;4.886;2022-12-11T22:19:06;0.90;99.90
11573;DHT22;5842;52.426;4.886;2022-12-11T22:21:33;0.90;99.90
11573;DHT22;5842;52.426;4.886;2022-12-11T22:24:02;0.90;99.90
11573;DHT22;5842;52.426;4.886;2022-12-11T22:26:29;1.00;99.90
11573;DHT22;5842;52.426;4.886;2022-12-11T22:28:57;1.00;99.90
11573;DHT22;5842;52.426;4.886;2022-12-11T22:31:25;1.00;99.90
11573;DHT22;5842;52.426;4.886;2022-12-11T22:33:54;0.90;99.90
11573;DHT22;5842;52.426;4.886;2022-12-11T22:36:23;0.90;99.90
11573;DHT22;5842;52.426;4.886;2022-12-11T22:38:51;0.90;99.90
11573;DHT22;5842;52.426;4.886;2022-12-11T22:41:23;0.90;99.90
11573;DHT22;5842;52.426;4.886;2022-12-11T22:43:51;0.90;99.90
11573;DHT22;5842;52.426;4.886;2022-12-11T22:46:21;0.90;99.90
11573;DHT22;5842;52.426;4.886;2022-12-11T22:48:48;0.90;99.90
11573;DHT22;5842;52.426;4.886;2022-12-11T22:51:16;0.90;99.90
11573;DHT22;5842;52.426;4.886;2022-12-11T22:53:43;0.90;99.90
11573;DHT22;5842;52.426;4.886;2022-12-11T22:56:11;1.00;99.90
11573;DHT22;5842;52.426;4.886;2022-12-11T22:58:43;1.00;99.90
11573;DHT22;5842;52.426;4.886;2022-12-11T23:01:12;1.00;99.90
11573;DHT22;5842;52.426;4.886;2022-12-11T23:03:40;1.00;99.90
11573;DHT22;5842;52.426;4.886;2022-12-11T23:06:09;1.00;99.90
11573;DHT22;5842;52.426;4.886;2022-12-11T23:08:36;1.00;99.90
11573;DHT22;5842;52.426;4.886;2022-12-11T23:11:09;1.00;99.90
11573;DHT22;5842;52.426;4.886;2022-12-11T23:13:37;1.00;99.90
11573;DHT22;5842;52.426;4.886;2022-12-11T23:16:06;1.00;99.90
11573;DHT22;5842;52.426;4.886;2022-12-11T23:18:33;1.00;99.90
11573;DHT22;5842;52.426;4.886;2022-12-11T23:21:00;1.00;99.90
11573;DHT22;5842;52.426;4.886;2022-12-11T23:23:27;1.00;99.90
11573;DHT22;5842;52.426;4.886;2022-12-11T23:25:55;1.00;99.90
11573;DHT22;5842;52.426;4.886;2022-12-11T23:28:23;1.00;99.90
11573;DHT22;5842;52.426;4.886;2022-12-11T23:30:50;1.00;99.90
11573;DHT22;5842;52.426;4.886;2022-12-11T23:33:19;1.00;99.90
11573;DHT22;5842;52.426;4.886;2022-12-11T23:35:46;1.00;99.90
11573;DHT22;5842;52.426;4.886;2022-12-11T23:38:15;1.10;99.90
11573;DHT22;5842;52.426;4.886;2022-12-11T23:40:43;1.10;99.90
11573;DHT22;5842;52.426;4.886;2022-12-11T23:43:11;1.10;99.90
11573;DHT22;5842;52.426;4.886;2022-12-11T23:45:38;1.00;99.90
11573;DHT22;5842;52.426;4.886;2022-12-11T23:48:05;1.10;99.90
11573;DHT22;5842;52.426;4.886;2022-12-11T23:50:34;1.10;99.90
11573;DHT22;5842;52.426;4.886;2022-12-11T23:53:01;1.10;99.90
11573;DHT22;5842;52.426;4.886;2022-12-11T23:55:29;1.10;99.90
11573;DHT22;5842;52.426;4.886;2022-12-11T23:57:56;1.10;99.90
